createdAt,value
2019-03-23T00:01:37.306Z,53.43
2019-03-23T00:04:10.191Z,47.27
2019-03-23T00:06:42.681Z,49.23
2019-03-23T00:09:15.695Z,52.57
2019-03-23T00:11:53.979Z,49.77
2019-03-23T00:14:25.934Z,49.13
2019-03-23T00:16:58.710Z,49.23
2019-03-23T00:19:31.317Z,52.43
2019-03-23T00:22:04.401Z,50.17
2019-03-23T00:24:36.884Z,52.77
2019-03-23T00:27:09.290Z,55.27
2019-03-23T00:29:42.442Z,51.40
2019-03-23T00:32:14.928Z,49.60
2019-03-23T00:34:47.039Z,51.47
2019-03-23T00:37:20.364Z,53.27
2019-03-23T00:39:52.201Z,46.27
2019-03-23T00:42:24.594Z,48.83
2019-03-23T00:44:57.768Z,48.90
2019-03-23T00:47:29.621Z,48.57
2019-03-23T00:50:02.798Z,47.30
2019-03-23T00:52:34.922Z,48.90
2019-03-23T00:55:08.764Z,49.50
2019-03-23T00:57:42.026Z,49.73
2019-03-23T01:00:14.690Z,50.17
2019-03-23T01:02:46.568Z,47.30
2019-03-23T01:05:18.755Z,51.80
2019-03-23T01:07:50.822Z,50.43
2019-03-23T01:10:23.160Z,49.27
2019-03-23T01:12:55.056Z,50.87
2019-03-23T01:15:27.869Z,53.00
2019-03-23T01:18:00.638Z,50.97
2019-03-23T01:20:33.377Z,58.73
2019-03-23T01:23:06.904Z,55.00
2019-03-23T01:25:39.430Z,52.70
2019-03-23T01:28:11.884Z,51.93
2019-03-23T01:30:44.492Z,51.60
2019-03-23T01:33:18.567Z,54.60
2019-03-23T01:35:52.112Z,50.53
2019-03-23T01:38:24.659Z,51.63
2019-03-23T01:40:57.229Z,52.50
2019-03-23T01:43:30.973Z,54.73
2019-03-23T01:46:03.583Z,53.27
2019-03-23T01:48:36.880Z,51.90
2019-03-23T01:51:10.412Z,55.93
2019-03-23T01:53:43.033Z,54.47
2019-03-23T01:56:16.248Z,56.87
2019-03-23T01:58:48.365Z,55.60
2019-03-23T02:01:20.854Z,51.77
2019-03-23T02:03:53.371Z,51.10
2019-03-23T02:06:26.023Z,51.93
2019-03-23T02:08:58.799Z,55.00
2019-03-23T02:11:32.425Z,56.10
2019-03-23T02:14:04.645Z,56.23
2019-03-23T02:16:38.123Z,49.57
2019-03-23T02:19:10.983Z,48.77
2019-03-23T02:21:43.679Z,52.37
2019-03-23T02:24:16.651Z,51.53
2019-03-23T02:26:54.255Z,58.70
2019-03-23T02:29:27.208Z,51.77
2019-03-23T02:31:59.356Z,63.03
2019-03-23T02:34:31.747Z,60.70
2019-03-23T02:37:04.111Z,52.93
2019-03-23T02:39:36.418Z,49.93
2019-03-23T02:42:09.969Z,40.67
2019-03-23T02:44:42.073Z,36.07
2019-03-23T02:47:14.726Z,43.43
2019-03-23T02:49:46.858Z,43.77
2019-03-23T02:52:19.330Z,42.07
2019-03-23T02:54:52.027Z,49.03
2019-03-23T02:57:24.074Z,45.07
2019-03-23T02:59:56.788Z,48.90
2019-03-23T03:02:29.410Z,62.57
2019-03-23T03:05:02.075Z,45.13
2019-03-23T03:07:41.801Z,42.10
2019-03-23T03:10:09.819Z,43.57
2019-03-23T03:12:42.599Z,40.33
2019-03-23T03:15:16.150Z,45.70
2019-03-23T03:17:48.979Z,43.37
2019-03-23T03:20:21.170Z,41.83
2019-03-23T03:22:53.301Z,36.97
2019-03-23T03:25:27.171Z,34.63
2019-03-23T03:27:59.409Z,35.67
2019-03-23T03:30:34.155Z,30.93
2019-03-23T03:33:09.160Z,22.90
2019-03-23T03:35:42.260Z,20.37
2019-03-23T03:38:15.318Z,21.47
2019-03-23T03:40:47.374Z,18.17
2019-03-23T03:43:19.834Z,19.87
2019-03-23T03:45:52.594Z,21.90
2019-03-23T03:48:24.717Z,18.77
2019-03-23T03:50:56.825Z,21.17
2019-03-23T03:53:29.966Z,18.70
2019-03-23T03:56:02.539Z,18.97
2019-03-23T03:58:36.167Z,23.70
2019-03-23T04:01:08.371Z,20.37
2019-03-23T04:03:40.839Z,20.83
2019-03-23T04:06:12.819Z,21.40
2019-03-23T04:08:46.208Z,24.27
2019-03-23T04:11:18.099Z,21.37
2019-03-23T04:13:50.266Z,21.57
2019-03-23T04:16:23.262Z,18.97
2019-03-23T04:18:55.873Z,21.23
2019-03-23T04:21:28.115Z,19.03
2019-03-23T04:24:00.010Z,22.47
2019-03-23T04:26:32.388Z,18.93
2019-03-23T04:29:04.291Z,19.77
2019-03-23T04:31:36.714Z,18.50
2019-03-23T04:34:09.364Z,17.57
2019-03-23T04:36:41.834Z,16.77
2019-03-23T04:39:14.663Z,14.73
2019-03-23T04:41:47.217Z,21.00
2019-03-23T04:44:20.171Z,15.10
2019-03-23T04:46:52.271Z,14.57
2019-03-23T04:49:24.368Z,12.33
2019-03-23T04:51:57.123Z,13.07
2019-03-23T04:54:29.130Z,13.93
2019-03-23T04:57:01.232Z,13.47
2019-03-23T04:59:33.081Z,13.07
2019-03-23T05:02:05.424Z,12.30
2019-03-23T05:04:38.108Z,13.43
2019-03-23T05:07:09.982Z,14.10
2019-03-23T05:09:42.331Z,16.63
2019-03-23T05:12:14.529Z,13.03
2019-03-23T05:14:46.574Z,12.17
2019-03-23T05:17:18.777Z,13.80
2019-03-23T05:19:51.318Z,10.17
2019-03-23T05:22:23.871Z,12.53
2019-03-23T05:24:57.642Z,12.40
2019-03-23T05:27:29.774Z,12.90
2019-03-23T05:30:02.131Z,13.17
2019-03-23T05:32:35.291Z,12.60
2019-03-23T05:35:08.212Z,13.70
2019-03-23T05:37:40.459Z,13.57
2019-03-23T05:40:13.511Z,12.20
2019-03-23T05:42:45.648Z,11.20
2019-03-23T05:45:18.042Z,13.97
2019-03-23T05:47:51.197Z,9.10
2019-03-23T05:50:23.637Z,11.17
2019-03-23T05:52:55.845Z,12.57
2019-03-23T05:55:28.738Z,11.77
2019-03-23T05:58:01.827Z,15.23
2019-03-23T06:00:34.921Z,11.07
2019-03-23T06:03:07.815Z,14.63
2019-03-23T06:05:40.857Z,10.43
2019-03-23T06:08:13.474Z,9.97
2019-03-23T06:10:45.587Z,10.97
2019-03-23T06:13:18.485Z,10.40
2019-03-23T06:15:50.837Z,10.90
2019-03-23T06:18:23.236Z,9.30
2019-03-23T06:20:55.851Z,10.87
2019-03-23T06:23:27.980Z,13.07
2019-03-23T06:26:01.613Z,12.13
2019-03-23T06:28:34.353Z,12.37
2019-03-23T06:31:07.125Z,12.20
2019-03-23T06:33:39.544Z,11.97
2019-03-23T06:36:12.932Z,10.63
2019-03-23T06:38:46.848Z,13.37
2019-03-23T06:41:20.545Z,9.30
2019-03-23T06:43:53.004Z,10.97
2019-03-23T06:46:25.177Z,9.80
2019-03-23T06:48:58.010Z,11.30
2019-03-23T06:51:30.641Z,10.03
2019-03-23T06:54:03.259Z,11.47
2019-03-23T06:56:35.491Z,9.67
2019-03-23T06:59:07.927Z,10.47
2019-03-23T07:01:40.086Z,8.67
2019-03-23T07:04:14.264Z,8.70
2019-03-23T07:06:47.082Z,10.83
2019-03-23T07:09:19.551Z,13.03
2019-03-23T07:11:52.110Z,10.63
2019-03-23T07:14:28.206Z,13.17
2019-03-23T07:17:04.744Z,35.03
2019-03-23T07:19:37.476Z,38.53
2019-03-23T07:22:10.222Z,18.47
2019-03-23T07:24:43.065Z,14.93
2019-03-23T07:27:15.670Z,10.30
2019-03-23T07:29:48.271Z,11.87
2019-03-23T07:32:20.695Z,14.20
2019-03-23T07:34:53.167Z,14.30
2019-03-23T07:37:25.533Z,13.13
2019-03-23T07:39:57.950Z,10.37
2019-03-23T07:42:30.471Z,12.27
2019-03-23T07:45:02.822Z,10.27
2019-03-23T07:47:35.426Z,16.70
2019-03-23T07:50:08.512Z,34.30
2019-03-23T07:52:41.681Z,21.47
2019-03-23T07:55:16.683Z,22.37
2019-03-23T07:57:50.202Z,20.93
2019-03-23T08:00:23.231Z,17.70
2019-03-23T08:02:55.292Z,14.50
2019-03-23T08:05:27.680Z,14.23
2019-03-23T08:08:00.131Z,12.83
2019-03-23T08:10:33.918Z,16.37
2019-03-23T08:13:06.811Z,17.60
2019-03-23T08:15:39.376Z,14.07
2019-03-23T08:18:11.825Z,18.17
2019-03-23T08:20:44.325Z,19.30
2019-03-23T08:23:16.444Z,16.83
2019-03-23T08:25:49.344Z,15.30
2019-03-23T08:28:22.231Z,14.03
2019-03-23T08:30:54.102Z,16.57
2019-03-23T08:33:27.023Z,18.90
2019-03-23T08:35:59.689Z,17.80
2019-03-23T08:38:32.256Z,19.00
2019-03-23T08:41:04.380Z,20.77
2019-03-23T08:43:37.043Z,20.33
2019-03-23T08:46:08.863Z,23.73
2019-03-23T08:48:41.142Z,26.90
2019-03-23T08:51:13.504Z,29.00
2019-03-23T08:53:45.868Z,28.73
2019-03-23T08:56:18.645Z,32.33
2019-03-23T08:58:47.920Z,28.97
2019-03-23T09:01:19.768Z,32.80
2019-03-23T09:03:52.876Z,29.80
2019-03-23T09:06:24.966Z,30.63
2019-03-23T09:08:57.655Z,34.00
2019-03-23T09:11:30.331Z,39.63
2019-03-23T09:14:02.920Z,41.03
2019-03-23T09:16:36.797Z,46.93
2019-03-23T09:19:09.149Z,49.90
2019-03-23T09:21:41.771Z,60.50
2019-03-23T09:24:13.948Z,53.33
2019-03-23T09:26:46.607Z,46.70
2019-03-23T09:29:19.502Z,48.57
2019-03-23T09:31:51.618Z,48.20
2019-03-23T09:34:24.032Z,48.63
2019-03-23T09:36:56.716Z,46.33
2019-03-23T09:39:29.455Z,55.17
2019-03-23T09:42:01.580Z,46.40
2019-03-23T09:44:33.840Z,53.03
2019-03-23T09:47:06.448Z,54.87
2019-03-23T09:49:40.065Z,59.93
2019-03-23T09:52:12.702Z,69.03
2019-03-23T09:54:45.468Z,70.53
2019-03-23T09:57:17.855Z,76.73
2019-03-23T09:59:50.762Z,88.47
2019-03-23T10:02:23.908Z,86.77
2019-03-23T10:04:56.542Z,81.00
2019-03-23T10:07:29.358Z,81.17
2019-03-23T10:10:02.242Z,75.80
2019-03-23T10:12:35.783Z,84.93
2019-03-23T10:15:08.766Z,77.33
2019-03-23T10:17:41.718Z,77.83
2019-03-23T10:20:14.371Z,74.43
2019-03-23T10:22:47.149Z,75.87
2019-03-23T10:25:20.057Z,71.07
2019-03-23T10:27:52.747Z,67.27
2019-03-23T10:30:25.268Z,67.43
2019-03-23T10:32:57.890Z,73.77
2019-03-23T10:35:30.307Z,74.33
2019-03-23T10:38:03.050Z,73.93
2019-03-23T10:40:35.637Z,71.17
2019-03-23T10:43:07.582Z,69.10
2019-03-23T10:45:44.369Z,71.80
2019-03-23T10:48:16.417Z,78.87
2019-03-23T10:50:51.301Z,73.47
2019-03-23T10:53:24.900Z,73.83
2019-03-23T10:55:58.765Z,71.03
2019-03-23T10:58:31.179Z,71.33
2019-03-23T11:01:03.908Z,77.30
2019-03-23T11:03:36.339Z,74.03
2019-03-23T11:06:09.267Z,73.77
2019-03-23T11:08:41.719Z,79.23
2019-03-23T11:11:13.844Z,77.83
2019-03-23T11:13:46.880Z,79.60
2019-03-23T11:16:19.106Z,78.27
2019-03-23T11:18:52.099Z,77.20
2019-03-23T11:21:24.765Z,80.93
2019-03-23T11:23:56.886Z,80.67
2019-03-23T11:26:29.584Z,76.83
2019-03-23T11:29:02.027Z,78.27
2019-03-23T11:31:34.180Z,74.37
2019-03-23T11:34:06.799Z,73.80
2019-03-23T11:36:39.804Z,81.83
2019-03-23T11:39:13.456Z,76.37
2019-03-23T11:41:45.720Z,73.43
2019-03-23T11:44:19.043Z,73.03
2019-03-23T11:46:51.740Z,73.33
2019-03-23T11:49:24.497Z,71.83
2019-03-23T11:51:57.890Z,75.83
2019-03-23T11:54:30.262Z,70.67
2019-03-23T11:57:02.509Z,70.60
2019-03-23T11:59:34.322Z,76.47
2019-03-23T12:02:06.291Z,76.43
2019-03-23T12:04:38.859Z,77.37
2019-03-23T12:07:14.176Z,74.10
2019-03-23T12:09:46.230Z,75.67
2019-03-23T12:12:19.199Z,72.87
2019-03-23T12:14:51.689Z,72.13
2019-03-23T12:17:24.232Z,77.60
2019-03-23T12:19:56.846Z,74.13
2019-03-23T12:22:30.012Z,74.60
2019-03-23T12:25:03.164Z,75.43
2019-03-23T12:27:35.597Z,84.77
2019-03-23T12:30:09.496Z,81.60
2019-03-23T12:32:41.979Z,72.73
2019-03-23T12:35:14.622Z,81.77
2019-03-23T12:37:47.370Z,81.37
2019-03-23T12:40:19.721Z,78.10
2019-03-23T12:42:53.000Z,71.93
2019-03-23T12:45:26.082Z,77.53
2019-03-23T12:47:59.106Z,81.67
2019-03-23T12:50:31.552Z,76.30
2019-03-23T12:53:04.160Z,78.37
2019-03-23T12:55:36.601Z,78.23
2019-03-23T12:58:09.303Z,75.80
2019-03-23T13:00:42.330Z,93.67
2019-03-23T13:03:14.404Z,82.77
2019-03-23T13:05:47.014Z,78.60
2019-03-23T13:08:19.472Z,80.50
2019-03-23T13:10:51.953Z,74.13
2019-03-23T13:13:24.404Z,86.53
2019-03-23T13:15:56.497Z,91.70
2019-03-23T13:18:29.204Z,76.03
2019-03-23T13:21:03.132Z,82.00
2019-03-23T13:23:35.275Z,88.77
2019-03-23T13:26:07.475Z,73.97
2019-03-23T13:28:39.773Z,74.33
2019-03-23T13:31:12.316Z,74.90
2019-03-23T13:33:44.251Z,69.57
2019-03-23T13:36:16.708Z,71.90
2019-03-23T13:38:49.396Z,74.63
2019-03-23T13:41:22.051Z,74.93
2019-03-23T13:43:55.507Z,69.93
2019-03-23T13:46:28.286Z,72.20
2019-03-23T13:49:01.172Z,74.87
2019-03-23T13:51:33.794Z,69.73
2019-03-23T13:54:06.373Z,62.27
2019-03-23T13:56:39.030Z,66.63
2019-03-23T13:59:11.453Z,61.03
2019-03-23T14:01:45.331Z,69.37
2019-03-23T14:04:17.796Z,68.27
2019-03-23T14:06:50.165Z,71.83
2019-03-23T14:09:22.997Z,65.83
2019-03-23T14:11:55.540Z,66.27
2019-03-23T14:14:29.139Z,69.87
2019-03-23T14:17:01.043Z,65.20
2019-03-23T14:19:33.146Z,65.67
2019-03-23T14:22:05.359Z,62.53
2019-03-23T14:24:38.422Z,65.33
2019-03-23T14:27:10.979Z,66.93
2019-03-23T14:29:45.467Z,66.33
2019-03-23T14:32:17.677Z,62.77
2019-03-23T14:34:50.562Z,65.03
2019-03-23T14:37:23.749Z,62.57
2019-03-23T14:39:56.087Z,59.87
2019-03-23T14:42:28.234Z,55.53
2019-03-23T14:45:00.825Z,54.13
2019-03-23T14:47:33.498Z,53.40
2019-03-23T14:50:06.855Z,55.07
2019-03-23T14:52:40.296Z,49.83
2019-03-23T14:55:13.299Z,53.10
2019-03-23T14:57:45.792Z,55.60
2019-03-23T15:00:33.286Z,48.97
2019-03-23T15:03:05.487Z,52.27
2019-03-23T15:05:37.967Z,52.10
2019-03-23T15:08:10.812Z,47.80
2019-03-23T15:10:43.125Z,47.53
2019-03-23T15:13:16.054Z,46.07
2019-03-23T15:15:48.482Z,46.97
2019-03-23T15:18:20.998Z,46.43
2019-03-23T15:20:53.284Z,46.73
2019-03-23T15:23:25.656Z,51.07
2019-03-23T15:25:57.472Z,48.73
2019-03-23T15:28:30.057Z,48.60
2019-03-23T15:31:02.731Z,48.27
2019-03-23T15:33:36.098Z,48.53
2019-03-23T15:36:08.626Z,45.20
2019-03-23T15:38:41.144Z,42.03
2019-03-23T15:41:14.088Z,47.23
2019-03-23T15:43:46.405Z,42.23
2019-03-23T15:46:19.267Z,46.37
2019-03-23T15:48:51.786Z,42.17
2019-03-23T15:51:24.370Z,42.03
2019-03-23T15:53:56.775Z,38.83
2019-03-23T15:56:28.984Z,41.50
2019-03-23T15:59:00.795Z,46.07
2019-03-23T16:01:34.346Z,42.60
2019-03-23T16:04:06.268Z,44.33
2019-03-23T16:06:38.722Z,43.97
2019-03-23T16:09:11.330Z,44.67
2019-03-23T16:11:43.627Z,39.93
2019-03-23T16:14:16.551Z,42.47
2019-03-23T16:16:49.020Z,43.53
2019-03-23T16:19:22.243Z,39.47
2019-03-23T16:21:54.367Z,41.93
2019-03-23T16:24:26.974Z,38.87
2019-03-23T16:26:59.604Z,42.03
2019-03-23T16:29:31.432Z,39.60
2019-03-23T16:32:04.566Z,42.47
2019-03-23T16:34:37.525Z,43.07
2019-03-23T16:37:09.959Z,42.47
2019-03-23T16:39:42.023Z,41.07
2019-03-23T16:42:14.344Z,45.20
2019-03-23T16:44:46.963Z,43.90
2019-03-23T16:47:19.435Z,44.57
2019-03-23T16:49:52.941Z,47.90
2019-03-23T16:52:25.416Z,43.10
2019-03-23T16:54:57.751Z,41.10
2019-03-23T16:57:31.115Z,45.37
2019-03-23T17:00:03.664Z,48.13
2019-03-23T17:02:36.069Z,47.90
2019-03-23T17:05:10.025Z,44.17
2019-03-23T17:07:42.659Z,46.03
2019-03-23T17:10:15.726Z,46.03
2019-03-23T17:12:55.356Z,44.43
2019-03-23T17:15:22.035Z,43.00
2019-03-23T17:17:54.543Z,42.97
2019-03-23T17:20:27.877Z,49.70
2019-03-23T17:23:00.681Z,46.43
2019-03-23T17:25:33.049Z,47.00
2019-03-23T17:28:04.999Z,48.90
2019-03-23T17:30:37.906Z,49.30
2019-03-23T17:33:10.944Z,46.03
2019-03-23T17:35:44.547Z,50.00
2019-03-23T17:38:17.049Z,48.57
2019-03-23T17:40:49.629Z,53.13
2019-03-23T17:43:23.370Z,50.70
2019-03-23T17:45:55.464Z,50.92
2019-03-23T17:48:31.728Z,49.27
2019-03-23T17:51:07.410Z,52.57
2019-03-23T17:53:40.314Z,51.30
2019-03-23T17:56:13.384Z,54.90
2019-03-23T17:58:45.849Z,49.53
2019-03-23T18:01:20.086Z,53.07
2019-03-23T18:03:53.619Z,53.73
2019-03-23T18:06:26.067Z,53.00
2019-03-23T18:08:59.273Z,52.30
2019-03-23T18:11:34.701Z,48.80
2019-03-23T18:14:07.393Z,47.43
2019-03-23T18:16:39.774Z,49.53
2019-03-23T18:19:12.366Z,51.03
2019-03-23T18:21:44.264Z,47.63
2019-03-23T18:24:16.491Z,50.47
2019-03-23T18:26:48.997Z,52.10
2019-03-23T18:29:21.393Z,49.93
2019-03-23T18:31:53.694Z,51.97
2019-03-23T18:34:26.184Z,52.23
2019-03-23T18:36:59.729Z,48.97
2019-03-23T18:39:32.418Z,53.63
2019-03-23T18:42:05.138Z,55.60
2019-03-23T18:44:38.542Z,51.90
2019-03-23T18:47:11.003Z,52.93
2019-03-23T18:49:44.964Z,53.80
2019-03-23T18:52:17.940Z,56.50
2019-03-23T18:54:50.079Z,59.10
2019-03-23T18:57:23.780Z,55.43
2019-03-23T18:59:58.595Z,57.27
2019-03-23T19:02:31.031Z,57.93
2019-03-23T19:05:02.927Z,59.47
2019-03-23T19:07:35.804Z,59.40
2019-03-23T19:10:08.248Z,61.70
2019-03-23T19:12:40.918Z,61.57
2019-03-23T19:15:13.233Z,58.13
2019-03-23T19:17:45.616Z,58.27
2019-03-23T19:20:18.182Z,53.70
2019-03-23T19:22:51.579Z,56.03
2019-03-23T19:25:24.041Z,58.87
2019-03-23T19:27:57.022Z,57.53
2019-03-23T19:30:29.515Z,63.63
2019-03-23T19:33:02.258Z,61.50
2019-03-23T19:35:34.699Z,58.40
2019-03-23T19:38:06.777Z,58.60
2019-03-23T19:40:40.852Z,60.67
2019-03-23T19:43:13.792Z,55.87
2019-03-23T19:45:46.496Z,57.60
2019-03-23T19:48:19.012Z,54.87
2019-03-23T19:50:51.166Z,53.70
2019-03-23T19:53:22.976Z,58.23
2019-03-23T19:55:55.144Z,58.60
2019-03-23T19:58:27.617Z,59.33
2019-03-23T20:01:00.069Z,62.17
2019-03-23T20:03:32.230Z,61.90
2019-03-23T20:06:04.933Z,60.53
2019-03-23T20:08:37.824Z,62.67
2019-03-23T20:11:10.634Z,57.93
2019-03-23T20:13:43.294Z,62.23
2019-03-23T20:16:15.684Z,55.53
2019-03-23T20:18:48.643Z,56.77
2019-03-23T20:21:20.469Z,61.83
2019-03-23T20:23:52.567Z,57.57
2019-03-23T20:26:25.422Z,55.50
2019-03-23T20:28:57.543Z,59.90
2019-03-23T20:31:29.813Z,62.47
2019-03-23T20:34:02.017Z,64.83
2019-03-23T20:36:34.907Z,60.73
2019-03-23T20:39:08.346Z,66.70
2019-03-23T20:41:42.245Z,60.00
2019-03-23T20:44:14.949Z,59.03
2019-03-23T20:46:47.608Z,62.00
2019-03-23T20:49:20.821Z,63.47
2019-03-23T20:51:54.146Z,61.07
2019-03-23T20:54:27.877Z,63.80
2019-03-23T20:56:59.985Z,65.50
2019-03-23T20:59:32.110Z,64.10
2019-03-23T21:02:04.940Z,64.13
2019-03-23T21:04:37.349Z,62.93
2019-03-23T21:07:09.772Z,59.50
2019-03-23T21:09:42.695Z,62.20
2019-03-23T21:12:14.784Z,54.87
2019-03-23T21:14:47.275Z,56.40
2019-03-23T21:17:19.952Z,57.93
2019-03-23T21:19:52.361Z,60.53
2019-03-23T21:22:24.963Z,63.83
2019-03-23T21:24:58.027Z,67.27
2019-03-23T21:27:31.364Z,65.80
2019-03-23T21:30:04.959Z,62.43
2019-03-23T21:32:37.139Z,68.07
2019-03-23T21:35:09.675Z,65.17
2019-03-23T21:37:42.205Z,59.57
2019-03-23T21:40:15.398Z,58.70
2019-03-23T21:42:48.067Z,56.00
2019-03-23T21:45:20.933Z,62.90
2019-03-23T21:47:52.836Z,66.00
2019-03-23T21:50:26.131Z,61.70
2019-03-23T21:52:58.285Z,68.43
2019-03-23T21:55:30.662Z,68.10
2019-03-23T21:58:02.813Z,66.13
2019-03-23T22:00:36.234Z,58.50
2019-03-23T22:03:08.702Z,58.27
2019-03-23T22:05:40.942Z,59.07
2019-03-23T22:08:13.304Z,60.97
2019-03-23T22:10:46.213Z,61.00
2019-03-23T22:13:18.598Z,58.57
2019-03-23T22:15:50.734Z,58.77
2019-03-23T22:18:23.109Z,51.60
2019-03-23T22:20:57.035Z,57.23
2019-03-23T22:23:29.735Z,56.40
2019-03-23T22:26:01.894Z,54.80
2019-03-23T22:28:34.272Z,57.37
2019-03-23T22:31:06.484Z,50.30
2019-03-23T22:33:38.884Z,51.57
2019-03-23T22:36:11.786Z,53.70
2019-03-23T22:38:44.566Z,56.23
2019-03-23T22:41:17.213Z,53.73
2019-03-23T22:43:49.620Z,58.10
2019-03-23T22:46:22.013Z,56.23
2019-03-23T22:48:54.337Z,57.47
2019-03-23T22:51:26.144Z,54.93
2019-03-23T22:53:58.589Z,53.63
2019-03-23T22:56:30.968Z,53.97
2019-03-23T22:59:03.382Z,52.03
2019-03-23T23:01:35.697Z,54.20
2019-03-23T23:04:07.773Z,51.10
2019-03-23T23:06:40.623Z,53.00
2019-03-23T23:09:13.686Z,51.63
2019-03-23T23:11:46.094Z,56.53
2019-03-23T23:14:20.168Z,56.90
2019-03-23T23:16:53.813Z,51.07
2019-03-23T23:19:26.068Z,49.97
2019-03-23T23:21:58.568Z,51.57
2019-03-23T23:24:31.058Z,53.17
2019-03-23T23:27:03.168Z,52.83
2019-03-23T23:29:36.093Z,48.33
2019-03-23T23:32:08.510Z,52.90
2019-03-23T23:34:40.703Z,50.97
2019-03-23T23:37:13.263Z,51.30
2019-03-23T23:39:45.735Z,53.43
2019-03-23T23:42:19.587Z,47.33
2019-03-23T23:44:51.807Z,53.63
2019-03-23T23:47:23.833Z,54.80
2019-03-23T23:49:56.230Z,49.73
2019-03-23T23:52:28.357Z,50.97
2019-03-23T23:55:00.947Z,47.77
2019-03-23T23:57:38.157Z,46.30
